sensor_id;sensor_type;location;lat;lon;timestamp;P1;durP1;ratioP1;P2;durP2;ratioP2
74044;SDS011;62389;51.412;5.436;2023-04-16T00:01:04;6.22;;;2.63;;
74044;SDS011;62389;51.412;5.436;2023-04-16T00:03:30;7.95;;;3.15;;
74044;SDS011;62389;51.412;5.436;2023-04-16T00:05:55;4.95;;;3.17;;
74044;SDS011;62389;51.412;5.436;2023-04-16T00:08:21;6.93;;;2.78;;
74044;SDS011;62389;51.412;5.436;2023-04-16T00:10:48;5.45;;;2.58;;
74044;SDS011;62389;51.412;5.436;2023-04-16T00:13:15;3.83;;;2.55;;
74044;SDS011;62389;51.412;5.436;2023-04-16T00:15:40;6.93;;;3.03;;
74044;SDS011;62389;51.412;5.436;2023-04-16T00:18:05;6.78;;;3.45;;
74044;SDS011;62389;51.412;5.436;2023-04-16T00:20:31;5.53;;;2.63;;
74044;SDS011;62389;51.412;5.436;2023-04-16T00:22:56;4.15;;;2.45;;
74044;SDS011;62389;51.412;5.436;2023-04-16T00:25:22;7.22;;;2.63;;
74044;SDS011;62389;51.412;5.436;2023-04-16T00:27:47;7.05;;;3.13;;
74044;SDS011;62389;51.412;5.436;2023-04-16T00:30:12;4.70;;;2.55;;
74044;SDS011;62389;51.412;5.436;2023-04-16T00:32:38;9.50;;;2.53;;
74044;SDS011;62389;51.412;5.436;2023-04-16T00:35:03;6.57;;;3.28;;
74044;SDS011;62389;51.412;5.436;2023-04-16T00:37:29;4.95;;;2.78;;
74044;SDS011;62389;51.412;5.436;2023-04-16T00:39:54;5.50;;;2.97;;
74044;SDS011;62389;51.412;5.436;2023-04-16T00:42:20;5.32;;;3.05;;
74044;SDS011;62389;51.412;5.436;2023-04-16T00:44:45;5.45;;;3.17;;
74044;SDS011;62389;51.412;5.436;2023-04-16T00:47:10;7.10;;;2.53;;
74044;SDS011;62389;51.412;5.436;2023-04-16T00:49:36;7.57;;;3.03;;
74044;SDS011;62389;51.412;5.436;2023-04-16T00:52:01;8.70;;;3.33;;
74044;SDS011;62389;51.412;5.436;2023-04-16T00:54:27;11.02;;;3.60;;
74044;SDS011;62389;51.412;5.436;2023-04-16T00:56:53;9.05;;;3.70;;
74044;SDS011;62389;51.412;5.436;2023-04-16T00:59:20;7.75;;;3.10;;
74044;SDS011;62389;51.412;5.436;2023-04-16T01:01:45;5.38;;;2.65;;
74044;SDS011;62389;51.412;5.436;2023-04-16T01:04:10;6.70;;;3.15;;
74044;SDS011;62389;51.412;5.436;2023-04-16T01:06:36;7.50;;;3.75;;
74044;SDS011;62389;51.412;5.436;2023-04-16T01:09:01;7.70;;;4.03;;
74044;SDS011;62389;51.412;5.436;2023-04-16T01:11:27;8.65;;;3.80;;
74044;SDS011;62389;51.412;5.436;2023-04-16T01:13:52;6.93;;;3.45;;
74044;SDS011;62389;51.412;5.436;2023-04-16T01:16:17;5.82;;;3.25;;
74044;SDS011;62389;51.412;5.436;2023-04-16T01:18:43;5.70;;;3.35;;
74044;SDS011;62389;51.412;5.436;2023-04-16T01:21:08;8.18;;;3.78;;
74044;SDS011;62389;51.412;5.436;2023-04-16T01:23:34;6.00;;;3.63;;
74044;SDS011;62389;51.412;5.436;2023-04-16T01:25:59;8.25;;;3.47;;
74044;SDS011;62389;51.412;5.436;2023-04-16T01:28:25;5.97;;;3.53;;
74044;SDS011;62389;51.412;5.436;2023-04-16T01:30:50;10.30;;;3.75;;
74044;SDS011;62389;51.412;5.436;2023-04-16T01:33:17;6.47;;;3.20;;
74044;SDS011;62389;51.412;5.436;2023-04-16T01:35:43;8.07;;;3.50;;
74044;SDS011;62389;51.412;5.436;2023-04-16T01:38:09;6.40;;;3.50;;
74044;SDS011;62389;51.412;5.436;2023-04-16T01:40:35;6.40;;;3.63;;
74044;SDS011;62389;51.412;5.436;2023-04-16T01:43:01;7.78;;;3.58;;
74044;SDS011;62389;51.412;5.436;2023-04-16T01:45:27;6.57;;;3.53;;
74044;SDS011;62389;51.412;5.436;2023-04-16T01:47:53;7.80;;;4.28;;
74044;SDS011;62389;51.412;5.436;2023-04-16T01:50:18;11.02;;;4.30;;
74044;SDS011;62389;51.412;5.436;2023-04-16T01:52:45;9.80;;;3.78;;
74044;SDS011;62389;51.412;5.436;2023-04-16T01:55:10;10.45;;;4.38;;
74044;SDS011;62389;51.412;5.436;2023-04-16T01:57:36;7.45;;;3.58;;
74044;SDS011;62389;51.412;5.436;2023-04-16T02:00:02;9.00;;;5.00;;
74044;SDS011;62389;51.412;5.436;2023-04-16T02:02:28;10.55;;;4.72;;
74044;SDS011;62389;51.412;5.436;2023-04-16T02:04:55;9.43;;;4.43;;
74044;SDS011;62389;51.412;5.436;2023-04-16T02:07:23;11.38;;;4.65;;
74044;SDS011;62389;51.412;5.436;2023-04-16T02:09:49;9.43;;;4.90;;
74044;SDS011;62389;51.412;5.436;2023-04-16T02:12:15;9.68;;;4.70;;
74044;SDS011;62389;51.412;5.436;2023-04-16T02:14:41;8.80;;;4.32;;
74044;SDS011;62389;51.412;5.436;2023-04-16T02:17:07;7.25;;;4.22;;
74044;SDS011;62389;51.412;5.436;2023-04-16T02:19:32;11.15;;;5.03;;
74044;SDS011;62389;51.412;5.436;2023-04-16T02:21:58;10.40;;;4.70;;
74044;SDS011;62389;51.412;5.436;2023-04-16T02:26:50;7.97;;;4.10;;
74044;SDS011;62389;51.412;5.436;2023-04-16T02:29:16;7.45;;;5.32;;
74044;SDS011;62389;51.412;5.436;2023-04-16T02:31:41;10.13;;;4.85;;
74044;SDS011;62389;51.412;5.436;2023-04-16T02:34:06;9.68;;;4.63;;
74044;SDS011;62389;51.412;5.436;2023-04-16T02:36:32;7.45;;;4.65;;
74044;SDS011;62389;51.412;5.436;2023-04-16T02:38:57;10.35;;;4.75;;
74044;SDS011;62389;51.412;5.436;2023-04-16T02:41:23;8.45;;;4.63;;
74044;SDS011;62389;51.412;5.436;2023-04-16T02:43:48;9.73;;;5.00;;
74044;SDS011;62389;51.412;5.436;2023-04-16T02:46:14;10.10;;;5.07;;
74044;SDS011;62389;51.412;5.436;2023-04-16T02:48:39;12.13;;;5.15;;
74044;SDS011;62389;51.412;5.436;2023-04-16T02:51:05;11.10;;;5.32;;
74044;SDS011;62389;51.412;5.436;2023-04-16T02:53:30;8.80;;;5.72;;
74044;SDS011;62389;51.412;5.436;2023-04-16T02:55:55;9.20;;;4.55;;
74044;SDS011;62389;51.412;5.436;2023-04-16T02:58:21;9.68;;;5.63;;
74044;SDS011;62389;51.412;5.436;2023-04-16T03:00:48;10.65;;;4.82;;
74044;SDS011;62389;51.412;5.436;2023-04-16T03:03:13;10.70;;;5.90;;
74044;SDS011;62389;51.412;5.436;2023-04-16T03:05:39;10.13;;;4.78;;
74044;SDS011;62389;51.412;5.436;2023-04-16T03:08:04;11.05;;;5.70;;
74044;SDS011;62389;51.412;5.436;2023-04-16T03:10:30;8.70;;;4.85;;
74044;SDS011;62389;51.412;5.436;2023-04-16T03:12:56;9.00;;;4.50;;
74044;SDS011;62389;51.412;5.436;2023-04-16T03:15:22;9.55;;;5.70;;
74044;SDS011;62389;51.412;5.436;2023-04-16T03:17:48;10.45;;;5.20;;
74044;SDS011;62389;51.412;5.436;2023-04-16T03:20:13;9.70;;;5.22;;
74044;SDS011;62389;51.412;5.436;2023-04-16T03:22:40;9.85;;;5.22;;
74044;SDS011;62389;51.412;5.436;2023-04-16T03:25:06;11.25;;;5.68;;
74044;SDS011;62389;51.412;5.436;2023-04-16T03:27:32;13.05;;;5.88;;
74044;SDS011;62389;51.412;5.436;2023-04-16T03:29:58;7.93;;;5.68;;
74044;SDS011;62389;51.412;5.436;2023-04-16T03:32:24;10.70;;;5.75;;
74044;SDS011;62389;51.412;5.436;2023-04-16T03:34:49;10.88;;;5.78;;
74044;SDS011;62389;51.412;5.436;2023-04-16T03:37:14;10.10;;;6.28;;
74044;SDS011;62389;51.412;5.436;2023-04-16T03:39:40;10.27;;;5.90;;
74044;SDS011;62389;51.412;5.436;2023-04-16T03:42:06;10.95;;;5.45;;
74044;SDS011;62389;51.412;5.436;2023-04-16T03:44:31;11.05;;;5.75;;
74044;SDS011;62389;51.412;5.436;2023-04-16T03:46:56;10.05;;;6.43;;
74044;SDS011;62389;51.412;5.436;2023-04-16T03:49:22;14.68;;;7.18;;
74044;SDS011;62389;51.412;5.436;2023-04-16T03:51:47;10.88;;;5.97;;
74044;SDS011;62389;51.412;5.436;2023-04-16T03:54:12;14.18;;;7.13;;
74044;SDS011;62389;51.412;5.436;2023-04-16T03:56:40;14.00;;;6.63;;
74044;SDS011;62389;51.412;5.436;2023-04-16T03:59:06;12.85;;;6.97;;
74044;SDS011;62389;51.412;5.436;2023-04-16T04:01:31;12.30;;;6.75;;
74044;SDS011;62389;51.412;5.436;2023-04-16T04:03:57;15.40;;;7.72;;
74044;SDS011;62389;51.412;5.436;2023-04-16T04:06:22;13.75;;;7.43;;
74044;SDS011;62389;51.412;5.436;2023-04-16T04:08:48;13.80;;;7.18;;
74044;SDS011;62389;51.412;5.436;2023-04-16T04:11:13;18.08;;;7.80;;
74044;SDS011;62389;51.412;5.436;2023-04-16T04:13:38;14.95;;;7.60;;
74044;SDS011;62389;51.412;5.436;2023-04-16T04:16:04;15.32;;;8.30;;
74044;SDS011;62389;51.412;5.436;2023-04-16T04:18:30;13.77;;;6.85;;
74044;SDS011;62389;51.412;5.436;2023-04-16T04:20:55;16.77;;;7.47;;
74044;SDS011;62389;51.412;5.436;2023-04-16T04:23:21;17.52;;;8.65;;
74044;SDS011;62389;51.412;5.436;2023-04-16T04:25:47;16.83;;;8.25;;
74044;SDS011;62389;51.412;5.436;2023-04-16T04:28:12;16.90;;;7.68;;
74044;SDS011;62389;51.412;5.436;2023-04-16T04:30:37;17.35;;;8.82;;
74044;SDS011;62389;51.412;5.436;2023-04-16T04:33:03;13.88;;;7.22;;
74044;SDS011;62389;51.412;5.436;2023-04-16T04:35:28;19.63;;;7.93;;
74044;SDS011;62389;51.412;5.436;2023-04-16T04:37:54;13.68;;;7.10;;
74044;SDS011;62389;51.412;5.436;2023-04-16T04:40:19;15.95;;;7.70;;
74044;SDS011;62389;51.412;5.436;2023-04-16T04:42:45;14.85;;;7.30;;
74044;SDS011;62389;51.412;5.436;2023-04-16T04:45:10;17.02;;;6.70;;
74044;SDS011;62389;51.412;5.436;2023-04-16T04:47:36;15.70;;;8.32;;
74044;SDS011;62389;51.412;5.436;2023-04-16T04:50:01;15.65;;;7.97;;
74044;SDS011;62389;51.412;5.436;2023-04-16T04:52:26;13.68;;;7.35;;
74044;SDS011;62389;51.412;5.436;2023-04-16T04:54:52;14.60;;;7.55;;
74044;SDS011;62389;51.412;5.436;2023-04-16T04:57:17;14.48;;;8.10;;
74044;SDS011;62389;51.412;5.436;2023-04-16T04:59:45;13.93;;;7.25;;
74044;SDS011;62389;51.412;5.436;2023-04-16T05:02:10;17.27;;;9.10;;
74044;SDS011;62389;51.412;5.436;2023-04-16T05:04:36;18.98;;;7.82;;
74044;SDS011;62389;51.412;5.436;2023-04-16T05:07:01;18.52;;;8.48;;
74044;SDS011;62389;51.412;5.436;2023-04-16T05:09:27;16.00;;;7.35;;
74044;SDS011;62389;51.412;5.436;2023-04-16T05:11:52;19.85;;;7.68;;
74044;SDS011;62389;51.412;5.436;2023-04-16T05:14:17;16.77;;;8.23;;
74044;SDS011;62389;51.412;5.436;2023-04-16T05:16:43;17.23;;;7.88;;
74044;SDS011;62389;51.412;5.436;2023-04-16T05:19:08;16.30;;;8.05;;
74044;SDS011;62389;51.412;5.436;2023-04-16T05:21:34;16.08;;;7.43;;
74044;SDS011;62389;51.412;5.436;2023-04-16T05:23:59;16.67;;;7.65;;
74044;SDS011;62389;51.412;5.436;2023-04-16T05:26:25;17.63;;;8.23;;
74044;SDS011;62389;51.412;5.436;2023-04-16T05:28:50;14.27;;;7.72;;
74044;SDS011;62389;51.412;5.436;2023-04-16T05:31:15;15.38;;;8.45;;
74044;SDS011;62389;51.412;5.436;2023-04-16T05:33:41;17.35;;;8.13;;
74044;SDS011;62389;51.412;5.436;2023-04-16T05:36:06;16.52;;;8.13;;
74044;SDS011;62389;51.412;5.436;2023-04-16T05:38:31;16.05;;;7.65;;
74044;SDS011;62389;51.412;5.436;2023-04-16T05:40:57;16.13;;;8.63;;
74044;SDS011;62389;51.412;5.436;2023-04-16T05:43:22;17.35;;;7.72;;
74044;SDS011;62389;51.412;5.436;2023-04-16T05:45:48;19.88;;;7.95;;
74044;SDS011;62389;51.412;5.436;2023-04-16T05:48:13;15.98;;;7.75;;
74044;SDS011;62389;51.412;5.436;2023-04-16T05:50:39;16.13;;;8.23;;
74044;SDS011;62389;51.412;5.436;2023-04-16T05:53:05;20.85;;;8.00;;
74044;SDS011;62389;51.412;5.436;2023-04-16T05:55:32;19.15;;;9.10;;
74044;SDS011;62389;51.412;5.436;2023-04-16T05:57:57;16.08;;;7.50;;
74044;SDS011;62389;51.412;5.436;2023-04-16T06:00:23;19.60;;;9.18;;
74044;SDS011;62389;51.412;5.436;2023-04-16T06:02:49;15.30;;;8.18;;
74044;SDS011;62389;51.412;5.436;2023-04-16T06:05:14;21.67;;;8.02;;
74044;SDS011;62389;51.412;5.436;2023-04-16T06:07:40;17.58;;;7.65;;
74044;SDS011;62389;51.412;5.436;2023-04-16T06:10:05;18.88;;;8.02;;
74044;SDS011;62389;51.412;5.436;2023-04-16T06:12:31;18.40;;;8.38;;
74044;SDS011;62389;51.412;5.436;2023-04-16T06:14:56;15.55;;;7.75;;
74044;SDS011;62389;51.412;5.436;2023-04-16T06:17:22;17.05;;;7.93;;
74044;SDS011;62389;51.412;5.436;2023-04-16T06:19:47;16.05;;;8.20;;
74044;SDS011;62389;51.412;5.436;2023-04-16T06:22:13;15.63;;;7.65;;
74044;SDS011;62389;51.412;5.436;2023-04-16T06:24:38;16.95;;;8.07;;
74044;SDS011;62389;51.412;5.436;2023-04-16T06:27:04;17.92;;;7.88;;
74044;SDS011;62389;51.412;5.436;2023-04-16T06:29:30;15.38;;;8.30;;
74044;SDS011;62389;51.412;5.436;2023-04-16T06:31:55;15.02;;;7.50;;
74044;SDS011;62389;51.412;5.436;2023-04-16T06:34:20;18.15;;;7.85;;
74044;SDS011;62389;51.412;5.436;2023-04-16T06:36:46;16.23;;;7.95;;
74044;SDS011;62389;51.412;5.436;2023-04-16T06:39:11;20.25;;;8.43;;
74044;SDS011;62389;51.412;5.436;2023-04-16T06:41:36;19.10;;;7.50;;
74044;SDS011;62389;51.412;5.436;2023-04-16T06:44:02;23.13;;;9.45;;
74044;SDS011;62389;51.412;5.436;2023-04-16T06:46:27;16.25;;;8.18;;
74044;SDS011;62389;51.412;5.436;2023-04-16T06:48:53;15.65;;;7.28;;
74044;SDS011;62389;51.412;5.436;2023-04-16T06:51:18;16.20;;;7.18;;
74044;SDS011;62389;51.412;5.436;2023-04-16T06:53:43;18.35;;;8.77;;
74044;SDS011;62389;51.412;5.436;2023-04-16T06:56:09;16.48;;;7.53;;
74044;SDS011;62389;51.412;5.436;2023-04-16T06:58:34;21.30;;;8.10;;
74044;SDS011;62389;51.412;5.436;2023-04-16T07:01:00;15.18;;;7.07;;
74044;SDS011;62389;51.412;5.436;2023-04-16T07:03:26;16.27;;;8.05;;
74044;SDS011;62389;51.412;5.436;2023-04-16T07:05:52;16.90;;;7.22;;
74044;SDS011;62389;51.412;5.436;2023-04-16T07:08:17;16.60;;;7.85;;
74044;SDS011;62389;51.412;5.436;2023-04-16T07:10:43;17.10;;;7.97;;
74044;SDS011;62389;51.412;5.436;2023-04-16T07:13:08;13.00;;;6.82;;
74044;SDS011;62389;51.412;5.436;2023-04-16T07:15:34;15.45;;;6.80;;
74044;SDS011;62389;51.412;5.436;2023-04-16T07:17:59;16.92;;;7.80;;
74044;SDS011;62389;51.412;5.436;2023-04-16T07:20:24;16.15;;;8.20;;
74044;SDS011;62389;51.412;5.436;2023-04-16T07:22:50;15.95;;;7.15;;
74044;SDS011;62389;51.412;5.436;2023-04-16T07:25:15;22.60;;;7.70;;
74044;SDS011;62389;51.412;5.436;2023-04-16T07:27:41;18.25;;;8.00;;
74044;SDS011;62389;51.412;5.436;2023-04-16T07:30:06;16.42;;;7.72;;
74044;SDS011;62389;51.412;5.436;2023-04-16T07:32:33;14.43;;;6.88;;
74044;SDS011;62389;51.412;5.436;2023-04-16T07:34:58;19.92;;;7.38;;
74044;SDS011;62389;51.412;5.436;2023-04-16T07:37:24;14.23;;;7.95;;
74044;SDS011;62389;51.412;5.436;2023-04-16T07:39:49;16.63;;;7.13;;
74044;SDS011;62389;51.412;5.436;2023-04-16T07:42:15;18.80;;;7.75;;
74044;SDS011;62389;51.412;5.436;2023-04-16T07:44:41;15.05;;;7.97;;
74044;SDS011;62389;51.412;5.436;2023-04-16T07:47:06;16.75;;;7.38;;
74044;SDS011;62389;51.412;5.436;2023-04-16T07:49:32;17.58;;;7.32;;
74044;SDS011;62389;51.412;5.436;2023-04-16T07:51:57;16.73;;;8.90;;
74044;SDS011;62389;51.412;5.436;2023-04-16T07:54:22;16.00;;;7.53;;
74044;SDS011;62389;51.412;5.436;2023-04-16T07:56:48;20.33;;;8.52;;
74044;SDS011;62389;51.412;5.436;2023-04-16T07:59:13;20.55;;;8.55;;
74044;SDS011;62389;51.412;5.436;2023-04-16T08:01:38;19.65;;;8.15;;
74044;SDS011;62389;51.412;5.436;2023-04-16T08:04:04;15.70;;;8.13;;
74044;SDS011;62389;51.412;5.436;2023-04-16T08:06:30;19.33;;;7.63;;
74044;SDS011;62389;51.412;5.436;2023-04-16T08:08:55;19.90;;;7.88;;
74044;SDS011;62389;51.412;5.436;2023-04-16T08:11:20;22.90;;;8.73;;
74044;SDS011;62389;51.412;5.436;2023-04-16T08:13:46;24.90;;;8.93;;
74044;SDS011;62389;51.412;5.436;2023-04-16T08:16:11;19.75;;;8.57;;
74044;SDS011;62389;51.412;5.436;2023-04-16T08:18:37;19.63;;;8.88;;
74044;SDS011;62389;51.412;5.436;2023-04-16T08:21:02;18.58;;;9.93;;
74044;SDS011;62389;51.412;5.436;2023-04-16T08:23:27;20.30;;;8.77;;
74044;SDS011;62389;51.412;5.436;2023-04-16T08:25:53;17.27;;;7.95;;
74044;SDS011;62389;51.412;5.436;2023-04-16T08:28:19;22.55;;;9.40;;
74044;SDS011;62389;51.412;5.436;2023-04-16T08:30:44;17.67;;;8.85;;
74044;SDS011;62389;51.412;5.436;2023-04-16T08:33:10;19.35;;;9.13;;
74044;SDS011;62389;51.412;5.436;2023-04-16T08:35:36;21.08;;;9.23;;
74044;SDS011;62389;51.412;5.436;2023-04-16T08:38:02;21.13;;;9.63;;
74044;SDS011;62389;51.412;5.436;2023-04-16T08:42:56;19.98;;;8.73;;
74044;SDS011;62389;51.412;5.436;2023-04-16T08:45:24;24.60;;;9.18;;
74044;SDS011;62389;51.412;5.436;2023-04-16T08:47:51;20.27;;;8.77;;
74044;SDS011;62389;51.412;5.436;2023-04-16T08:50:24;30.23;;;10.32;;
74044;SDS011;62389;51.412;5.436;2023-04-16T08:53:03;22.48;;;9.80;;
74044;SDS011;62389;51.412;5.436;2023-04-16T08:55:41;27.35;;;9.45;;
74044;SDS011;62389;51.412;5.436;2023-04-16T08:58:14;22.63;;;9.32;;
74044;SDS011;62389;51.412;5.436;2023-04-16T09:00:43;26.23;;;11.15;;
74044;SDS011;62389;51.412;5.436;2023-04-16T09:03:10;25.13;;;9.60;;
74044;SDS011;62389;51.412;5.436;2023-04-16T09:05:36;22.88;;;9.25;;
74044;SDS011;62389;51.412;5.436;2023-04-16T09:08:03;22.23;;;9.05;;
74044;SDS011;62389;51.412;5.436;2023-04-16T09:10:30;24.23;;;9.55;;
74044;SDS011;62389;51.412;5.436;2023-04-16T09:12:55;25.98;;;10.60;;
74044;SDS011;62389;51.412;5.436;2023-04-16T09:15:21;26.17;;;9.43;;
74044;SDS011;62389;51.412;5.436;2023-04-16T09:17:47;28.42;;;10.23;;
74044;SDS011;62389;51.412;5.436;2023-04-16T09:20:13;21.77;;;10.65;;
74044;SDS011;62389;51.412;5.436;2023-04-16T09:22:39;26.23;;;10.85;;
74044;SDS011;62389;51.412;5.436;2023-04-16T09:25:05;20.60;;;9.35;;
74044;SDS011;62389;51.412;5.436;2023-04-16T09:27:31;20.48;;;10.82;;
74044;SDS011;62389;51.412;5.436;2023-04-16T09:29:57;22.52;;;10.10;;
74044;SDS011;62389;51.412;5.436;2023-04-16T09:32:23;22.52;;;9.88;;
74044;SDS011;62389;51.412;5.436;2023-04-16T09:34:54;21.77;;;10.02;;
74044;SDS011;62389;51.412;5.436;2023-04-16T09:37:26;23.13;;;10.90;;
74044;SDS011;62389;51.412;5.436;2023-04-16T09:39:56;21.70;;;9.73;;
74044;SDS011;62389;51.412;5.436;2023-04-16T09:42:27;23.63;;;9.77;;
74044;SDS011;62389;51.412;5.436;2023-04-16T09:44:54;17.75;;;8.60;;
74044;SDS011;62389;51.412;5.436;2023-04-16T09:47:20;24.77;;;9.95;;
74044;SDS011;62389;51.412;5.436;2023-04-16T09:49:46;20.63;;;9.25;;
74044;SDS011;62389;51.412;5.436;2023-04-16T09:52:15;24.40;;;10.73;;
74044;SDS011;62389;51.412;5.436;2023-04-16T09:54:48;22.80;;;9.88;;
74044;SDS011;62389;51.412;5.436;2023-04-16T09:57:18;22.83;;;9.63;;
74044;SDS011;62389;51.412;5.436;2023-04-16T09:59:45;22.13;;;9.70;;
74044;SDS011;62389;51.412;5.436;2023-04-16T10:02:11;25.65;;;10.25;;
74044;SDS011;62389;51.412;5.436;2023-04-16T10:04:50;22.98;;;10.18;;
74044;SDS011;62389;51.412;5.436;2023-04-16T10:07:16;24.15;;;9.68;;
74044;SDS011;62389;51.412;5.436;2023-04-16T10:09:42;25.02;;;9.82;;
74044;SDS011;62389;51.412;5.436;2023-04-16T10:12:08;26.80;;;10.55;;
74044;SDS011;62389;51.412;5.436;2023-04-16T10:14:34;26.23;;;12.13;;
74044;SDS011;62389;51.412;5.436;2023-04-16T10:17:00;21.52;;;9.73;;
74044;SDS011;62389;51.412;5.436;2023-04-16T10:21:53;23.05;;;10.95;;
74044;SDS011;62389;51.412;5.436;2023-04-16T10:24:19;30.23;;;10.75;;
74044;SDS011;62389;51.412;5.436;2023-04-16T10:26:45;24.15;;;10.40;;
74044;SDS011;62389;51.412;5.436;2023-04-16T10:29:13;22.52;;;10.35;;
74044;SDS011;62389;51.412;5.436;2023-04-16T10:31:39;26.65;;;11.18;;
74044;SDS011;62389;51.412;5.436;2023-04-16T10:34:06;23.48;;;9.93;;
74044;SDS011;62389;51.412;5.436;2023-04-16T10:36:36;27.50;;;9.75;;
74044;SDS011;62389;51.412;5.436;2023-04-16T10:39:02;22.27;;;10.48;;
74044;SDS011;62389;51.412;5.436;2023-04-16T10:41:31;29.63;;;11.38;;
74044;SDS011;62389;51.412;5.436;2023-04-16T10:44:06;22.23;;;9.75;;
74044;SDS011;62389;51.412;5.436;2023-04-16T10:46:40;27.42;;;9.82;;
74044;SDS011;62389;51.412;5.436;2023-04-16T10:49:13;23.88;;;11.30;;
74044;SDS011;62389;51.412;5.436;2023-04-16T10:54:25;20.48;;;9.00;;
74044;SDS011;62389;51.412;5.436;2023-04-16T10:56:52;27.52;;;11.57;;
74044;SDS011;62389;51.412;5.436;2023-04-16T10:59:20;23.20;;;10.57;;
74044;SDS011;62389;51.412;5.436;2023-04-16T11:01:48;22.65;;;9.98;;
74044;SDS011;62389;51.412;5.436;2023-04-16T11:06:58;26.02;;;10.32;;
74044;SDS011;62389;51.412;5.436;2023-04-16T11:12:21;26.52;;;10.52;;
74044;SDS011;62389;51.412;5.436;2023-04-16T11:14:52;25.25;;;10.60;;
74044;SDS011;62389;51.412;5.436;2023-04-16T11:17:22;19.70;;;10.57;;
74044;SDS011;62389;51.412;5.436;2023-04-16T11:19:47;22.60;;;9.98;;
74044;SDS011;62389;51.412;5.436;2023-04-16T11:22:13;21.25;;;10.68;;
74044;SDS011;62389;51.412;5.436;2023-04-16T11:24:41;21.50;;;10.40;;
74044;SDS011;62389;51.412;5.436;2023-04-16T11:27:11;25.23;;;10.82;;
74044;SDS011;62389;51.412;5.436;2023-04-16T11:29:40;22.02;;;10.55;;
74044;SDS011;62389;51.412;5.436;2023-04-16T11:32:06;25.77;;;11.35;;
74044;SDS011;62389;51.412;5.436;2023-04-16T11:34:31;21.70;;;10.38;;
74044;SDS011;62389;51.412;5.436;2023-04-16T11:36:57;22.90;;;9.85;;
74044;SDS011;62389;51.412;5.436;2023-04-16T11:39:23;24.27;;;10.55;;
74044;SDS011;62389;51.412;5.436;2023-04-16T11:41:49;26.17;;;11.23;;
74044;SDS011;62389;51.412;5.436;2023-04-16T11:46:52;23.13;;;11.02;;
74044;SDS011;62389;51.412;5.436;2023-04-16T11:49:30;21.80;;;11.00;;
74044;SDS011;62389;51.412;5.436;2023-04-16T11:51:56;24.25;;;11.38;;
74044;SDS011;62389;51.412;5.436;2023-04-16T11:54:22;22.42;;;10.48;;
74044;SDS011;62389;51.412;5.436;2023-04-16T11:56:49;26.33;;;11.07;;
74044;SDS011;62389;51.412;5.436;2023-04-16T11:59:16;24.55;;;9.90;;
74044;SDS011;62389;51.412;5.436;2023-04-16T12:01:53;22.38;;;11.00;;
74044;SDS011;62389;51.412;5.436;2023-04-16T12:04:20;24.00;;;11.43;;
74044;SDS011;62389;51.412;5.436;2023-04-16T12:09:37;21.08;;;11.18;;
74044;SDS011;62389;51.412;5.436;2023-04-16T12:12:04;25.48;;;11.43;;
74044;SDS011;62389;51.412;5.436;2023-04-16T12:14:29;26.55;;;11.52;;
74044;SDS011;62389;51.412;5.436;2023-04-16T12:16:56;19.23;;;10.55;;
74044;SDS011;62389;51.412;5.436;2023-04-16T12:19:47;19.80;;;9.65;;
74044;SDS011;62389;51.412;5.436;2023-04-16T12:22:35;21.35;;;10.50;;
74044;SDS011;62389;51.412;5.436;2023-04-16T12:25:06;18.70;;;9.95;;
74044;SDS011;62389;51.412;5.436;2023-04-16T12:27:47;18.23;;;9.55;;
74044;SDS011;62389;51.412;5.436;2023-04-16T12:30:25;20.75;;;10.15;;
74044;SDS011;62389;51.412;5.436;2023-04-16T12:35:40;18.13;;;9.43;;
74044;SDS011;62389;51.412;5.436;2023-04-16T12:38:07;18.60;;;10.02;;
74044;SDS011;62389;51.412;5.436;2023-04-16T12:40:33;23.45;;;9.85;;
74044;SDS011;62389;51.412;5.436;2023-04-16T12:42:58;19.60;;;10.23;;
74044;SDS011;62389;51.412;5.436;2023-04-16T12:45:24;19.73;;;10.48;;
74044;SDS011;62389;51.412;5.436;2023-04-16T12:47:49;22.05;;;9.77;;
74044;SDS011;62389;51.412;5.436;2023-04-16T12:50:15;23.27;;;9.75;;
74044;SDS011;62389;51.412;5.436;2023-04-16T12:52:40;18.10;;;9.20;;
74044;SDS011;62389;51.412;5.436;2023-04-16T12:55:06;21.60;;;9.40;;
74044;SDS011;62389;51.412;5.436;2023-04-16T12:57:32;19.73;;;10.57;;
74044;SDS011;62389;51.412;5.436;2023-04-16T12:59:57;16.85;;;9.13;;
74044;SDS011;62389;51.412;5.436;2023-04-16T13:02:23;17.00;;;9.20;;
74044;SDS011;62389;51.412;5.436;2023-04-16T13:04:49;19.17;;;10.27;;
74044;SDS011;62389;51.412;5.436;2023-04-16T13:07:16;17.02;;;9.93;;
74044;SDS011;62389;51.412;5.436;2023-04-16T13:09:42;20.08;;;9.65;;
74044;SDS011;62389;51.412;5.436;2023-04-16T13:12:07;18.10;;;9.07;;
74044;SDS011;62389;51.412;5.436;2023-04-16T13:14:33;22.13;;;9.60;;
74044;SDS011;62389;51.412;5.436;2023-04-16T13:16:58;17.55;;;9.02;;
74044;SDS011;62389;51.412;5.436;2023-04-16T13:19:24;16.80;;;8.50;;
74044;SDS011;62389;51.412;5.436;2023-04-16T13:21:49;17.15;;;10.20;;
74044;SDS011;62389;51.412;5.436;2023-04-16T13:24:14;15.50;;;9.20;;
74044;SDS011;62389;51.412;5.436;2023-04-16T13:26:40;17.50;;;9.27;;
74044;SDS011;62389;51.412;5.436;2023-04-16T13:29:06;14.88;;;9.25;;
74044;SDS011;62389;51.412;5.436;2023-04-16T13:31:31;20.02;;;9.20;;
74044;SDS011;62389;51.412;5.436;2023-04-16T13:33:57;21.33;;;9.40;;
74044;SDS011;62389;51.412;5.436;2023-04-16T13:36:22;19.92;;;8.90;;
74044;SDS011;62389;51.412;5.436;2023-04-16T13:38:47;18.30;;;9.75;;
74044;SDS011;62389;51.412;5.436;2023-04-16T13:41:13;19.35;;;9.30;;
74044;SDS011;62389;51.412;5.436;2023-04-16T13:43:38;16.05;;;9.13;;
74044;SDS011;62389;51.412;5.436;2023-04-16T13:46:03;13.55;;;8.98;;
74044;SDS011;62389;51.412;5.436;2023-04-16T13:48:29;15.00;;;8.77;;
74044;SDS011;62389;51.412;5.436;2023-04-16T13:50:54;24.17;;;9.73;;
74044;SDS011;62389;51.412;5.436;2023-04-16T13:53:20;18.40;;;8.35;;
74044;SDS011;62389;51.412;5.436;2023-04-16T13:55:46;17.65;;;8.73;;
74044;SDS011;62389;51.412;5.436;2023-04-16T13:58:13;18.52;;;9.32;;
74044;SDS011;62389;51.412;5.436;2023-04-16T14:00:39;18.73;;;9.05;;
74044;SDS011;62389;51.412;5.436;2023-04-16T14:03:04;18.17;;;9.40;;
74044;SDS011;62389;51.412;5.436;2023-04-16T14:05:30;17.08;;;9.10;;
74044;SDS011;62389;51.412;5.436;2023-04-16T14:07:56;18.60;;;9.18;;
74044;SDS011;62389;51.412;5.436;2023-04-16T14:10:21;18.60;;;9.45;;
74044;SDS011;62389;51.412;5.436;2023-04-16T14:12:46;19.05;;;9.32;;
74044;SDS011;62389;51.412;5.436;2023-04-16T14:15:12;17.15;;;8.75;;
74044;SDS011;62389;51.412;5.436;2023-04-16T14:17:39;14.27;;;8.63;;
74044;SDS011;62389;51.412;5.436;2023-04-16T14:20:08;20.42;;;9.55;;
74044;SDS011;62389;51.412;5.436;2023-04-16T14:22:34;17.35;;;9.77;;
74044;SDS011;62389;51.412;5.436;2023-04-16T14:25:00;15.50;;;8.30;;
74044;SDS011;62389;51.412;5.436;2023-04-16T14:27:25;19.30;;;9.80;;
74044;SDS011;62389;51.412;5.436;2023-04-16T14:29:52;17.63;;;9.50;;
74044;SDS011;62389;51.412;5.436;2023-04-16T14:32:18;17.98;;;8.98;;
74044;SDS011;62389;51.412;5.436;2023-04-16T14:34:43;16.90;;;9.10;;
74044;SDS011;62389;51.412;5.436;2023-04-16T14:37:08;16.83;;;8.73;;
74044;SDS011;62389;51.412;5.436;2023-04-16T14:39:34;16.33;;;9.52;;
74044;SDS011;62389;51.412;5.436;2023-04-16T14:42:00;16.88;;;9.13;;
74044;SDS011;62389;51.412;5.436;2023-04-16T14:44:26;16.98;;;9.93;;
74044;SDS011;62389;51.412;5.436;2023-04-16T14:46:51;15.05;;;8.45;;
74044;SDS011;62389;51.412;5.436;2023-04-16T14:49:17;13.35;;;8.95;;
74044;SDS011;62389;51.412;5.436;2023-04-16T14:51:43;19.00;;;9.38;;
74044;SDS011;62389;51.412;5.436;2023-04-16T14:54:09;19.10;;;9.63;;